»·PEaware :: SWA798 KONT-KSLC

SWA798 :: KONT-KSLC

FLIGHT INFORMATION

Flight Status: Arrived
Operator:
Southwest Airlines
More flights by this operator :: More flights under this callsign
Pilot: Ben F. (2808)
Aircraft: BOEING 737-200
(B732)
More flights by this aircraft type
Origin: KONT Ontario Intl
United States
Destination: KSLC Salt Lake City Intl
United States
More flights between these airports :: More routes between these airports
Route: +MLF J9 FFU
File this flight plan on PilotEdge
Remarks: PBN / A1B2 NAV / RNVD1E2A1 REG / N275SB EET / KZLC0046 RMK / SIMBRIEF
Altitude:
(Current/Filed)
33,000ft
Speed:
(Current/Filed)
425kts
Departed: 21-Jan-18 10:01 AM
Arrived: 21-Jan-18 11:32 AM
Distance/Time
Traveled:
484nm/1:31
Distance/Time
To Go:
Arrived

Flight Plot

Page will automatically refresh every two minutes.

Flight plan parsing failed; only flown route is shown


Map Options




Map Legend


Flown Route
Filed Route
Departure Airport
Arrival Airport
Navaid (VOR, NDB)
Fix

Horizontal Profiles

Position Reports

Time Latitude Longitude Heading Altitude Ground
Speed
21-Jan-18 09:46 34.059734 -117.588728 360 952ft 0kts
21-Jan-18 09:47 34.059734 -117.588728 360 952ft 0kts
21-Jan-18 09:48 34.059734 -117.588728 360 952ft 0kts
21-Jan-18 09:49 34.059734 -117.588728 360 952ft 0kts
21-Jan-18 09:50 34.059734 -117.588728 360 952ft 0kts
21-Jan-18 09:51 34.059734 -117.588728 360 952ft 0kts
21-Jan-18 09:52 34.059734 -117.588728 360 952ft 0kts
21-Jan-18 09:53 34.059734 -117.588728 360 952ft 0kts
21-Jan-18 09:54 34.059734 -117.588728 0 952ft 0kts
21-Jan-18 09:55 34.059734 -117.588728 360 952ft 0kts
21-Jan-18 09:56 34.059734 -117.588728 360 952ft 0kts
21-Jan-18 09:57 34.059734 -117.588728 360 952ft 0kts
21-Jan-18 09:58 34.059734 -117.588728 360 952ft 0kts
21-Jan-18 09:59 34.059738 -117.588728 0 952ft 0kts
21-Jan-18 10:00 34.059229 -117.588919 78 952ft 2kts
21-Jan-18 10:01 34.059223 -117.588998 90 952ft 0kts
21-Jan-18 10:02 34.059223 -117.588998 90 952ft 0kts
21-Jan-18 10:03 34.059217 -117.588354 89 952ft 10kts
21-Jan-18 10:04 34.059209 -117.582951 104 952ft 12kts
21-Jan-18 10:05 34.057539 -117.582694 179 952ft 0kts
21-Jan-18 10:06 34.056901 -117.583275 266 952ft 0kts
21-Jan-18 10:07 34.056687 -117.614842 268 1475ft 170kts
21-Jan-18 10:08 34.056014 -117.677107 269 3522ft 218kts
21-Jan-18 10:09 34.055218 -117.757578 285 5914ft 264kts
21-Jan-18 10:10 34.101298 -117.821633 320 9052ft 263kts
21-Jan-18 10:11 34.156064 -117.881574 317 11417ft 286kts
21-Jan-18 10:12 34.215017 -117.949290 317 13479ft 307kts
21-Jan-18 10:13 34.283244 -118.013528 347 15283ft 316kts
21-Jan-18 10:14 34.352485 -117.954999 60 17158ft 359kts
21-Jan-18 10:15 34.397347 -117.846595 55 18734ft 368kts
21-Jan-18 10:16 34.446160 -117.737150 54 20196ft 376kts
21-Jan-18 10:17 34.496427 -117.625359 54 21502ft 385kts
21-Jan-18 10:18 34.547666 -117.511169 54 22669ft 394kts
21-Jan-18 10:19 34.599944 -117.394296 54 23704ft 402kts
21-Jan-18 10:20 34.652356 -117.276728 54 24579ft 410kts
21-Jan-18 10:21 34.706537 -117.154765 54 25383ft 417kts
21-Jan-18 10:22 34.761657 -117.030211 54 26182ft 423kts
21-Jan-18 10:23 34.817232 -116.904194 53 26939ft 430kts
21-Jan-18 10:24 34.873684 -116.775741 53 27634ft 436kts
21-Jan-18 10:25 34.930510 -116.645924 53 28303ft 440kts
21-Jan-18 10:26 35.000701 -116.528614 37 28927ft 425kts
21-Jan-18 10:27 35.081823 -116.426330 36 29634ft 423kts
21-Jan-18 10:28 35.159971 -116.328554 36 30251ft 424kts
21-Jan-18 10:29 35.239199 -116.229197 36 30867ft 423kts
21-Jan-18 10:30 35.320844 -116.126536 36 31353ft 425kts
21-Jan-18 10:31 35.402775 -116.023141 35 31917ft 424kts
21-Jan-18 10:32 35.484929 -115.919987 35 32385ft 424kts
21-Jan-18 10:33 35.566697 -115.817497 35 32813ft 426kts
21-Jan-18 10:34 35.648474 -115.714548 35 33271ft 426kts
21-Jan-18 10:35 35.731230 -115.609220 35 33354ft 436kts
21-Jan-18 10:36 35.815410 -115.501493 35 33350ft 441kts
21-Jan-18 10:37 35.899375 -115.393605 35 33346ft 439kts
21-Jan-18 10:38 35.980871 -115.288488 36 33331ft 436kts
21-Jan-18 10:39 36.063446 -115.181637 36 33332ft 433kts
21-Jan-18 10:40 36.147400 -115.086863 30 33341ft 426kts
21-Jan-18 10:41 36.236096 -114.991772 30 33339ft 427kts
21-Jan-18 10:42 36.324590 -114.895946 30 33340ft 426kts
21-Jan-18 10:43 36.413001 -114.799857 30 33342ft 424kts
21-Jan-18 10:44 36.500733 -114.704206 30 33341ft 423kts
21-Jan-18 10:45 36.588123 -114.608623 30 33341ft 422kts
21-Jan-18 10:46 36.675242 -114.513042 30 33340ft 421kts
21-Jan-18 10:47 36.766985 -114.429457 21 33331ft 407kts
21-Jan-18 10:48 36.862308 -114.354982 21 33317ft 407kts
21-Jan-18 10:49 36.954359 -114.282560 21 33284ft 406kts
21-Jan-18 10:50 37.048771 -114.208117 23 33276ft 403kts
21-Jan-18 10:51 37.139274 -114.136467 24 33290ft 400kts
21-Jan-18 10:52 37.232413 -114.062468 24 33288ft 400kts
21-Jan-18 10:53 37.325614 -113.988238 23 33284ft 399kts
21-Jan-18 10:54 37.418448 -113.914111 23 33285ft 398kts
21-Jan-18 10:55 37.510882 -113.840061 23 33286ft 398kts
21-Jan-18 10:56 37.602400 -113.765271 29 33284ft 405kts
21-Jan-18 10:57 37.688955 -113.674800 30 33248ft 409kts
21-Jan-18 10:58 37.777122 -113.586912 29 33228ft 409kts
21-Jan-18 10:59 37.863744 -113.502016 29 33226ft 410kts
21-Jan-18 11:00 37.952911 -113.414504 29 33226ft 411kts
21-Jan-18 11:01 38.040393 -113.328413 29 33214ft 411kts
21-Jan-18 11:02 38.125248 -113.244673 29 33236ft 411kts
21-Jan-18 11:03 38.213803 -113.156988 29 33241ft 412kts
21-Jan-18 11:04 38.303649 -113.067754 29 33241ft 414kts
21-Jan-18 11:05 38.397824 -112.992540 16 33235ft 401kts
21-Jan-18 11:06 38.498936 -112.936335 16 33242ft 401kts
21-Jan-18 11:07 38.599947 -112.880904 16 33242ft 402kts
21-Jan-18 11:08 38.701541 -112.824712 15 33232ft 402kts
21-Jan-18 11:09 38.801668 -112.766639 17 33227ft 393kts
21-Jan-18 11:10 38.898109 -112.709957 16 33239ft 382kts
21-Jan-18 11:11 38.992258 -112.653823 18 32218ft 376kts
21-Jan-18 11:12 39.084500 -112.598219 19 30204ft 366kts
21-Jan-18 11:13 39.158665 -112.553844 19 28456ft 360kts
21-Jan-18 11:14 39.239721 -112.507749 18 26684ft 359kts
21-Jan-18 11:15 39.329174 -112.457457 19 24668ft 353kts
21-Jan-18 11:16 39.416527 -112.408282 19 22337ft 340kts
21-Jan-18 11:17 39.500566 -112.360889 19 19748ft 329kts
21-Jan-18 11:18 39.578762 -112.316659 20 17322ft 318kts
21-Jan-18 11:19 39.657468 -112.272062 20 15025ft 307kts
21-Jan-18 11:20 39.736549 -112.227082 20 15008ft 310kts
21-Jan-18 11:21 39.814117 -112.182876 20 15004ft 308kts
21-Jan-18 11:22 39.891340 -112.138772 20 14996ft 307kts
21-Jan-18 11:23 39.968294 -112.094735 20 14990ft 306kts
21-Jan-18 11:24 40.045104 -112.050614 20 14980ft 302kts
21-Jan-18 11:25 40.116696 -112.009415 20 13546ft 290kts
21-Jan-18 11:26 40.184921 -111.970081 21 12013ft 276kts
21-Jan-18 11:27 40.253514 -111.934527 0 10977ft 246kts
21-Jan-18 11:28 40.323779 -111.931446 3 10986ft 259kts
21-Jan-18 11:29 40.391528 -111.929159 354 10987ft 237kts
21-Jan-18 11:30 40.455773 -111.936406 354 10591ft 240kts
21-Jan-18 11:31 40.514669 -111.943102 353 9404ft 193kts
21-Jan-18 11:32 40.566519 -111.949069 353 8381ft 192kts
21-Jan-18 11:33 40.617669 -111.954940 353 7362ft 182kts
21-Jan-18 11:34 40.666490 -111.960610 353 6432ft 180kts
21-Jan-18 11:35 40.710247 -111.965662 353 5524ft 155kts
21-Jan-18 11:36 40.748530 -111.970025 353 4768ft 136kts
21-Jan-18 11:37 40.783426 -111.974169 355 4236ft 100kts
21-Jan-18 11:38 40.791742 -111.977221 194 4236ft 13kts
21-Jan-18 11:39 40.789674 -111.978362 263 4236ft 6kts
21-Jan-18 11:40 40.789185 -111.978806 169 4236ft 0kts

Navigation Log

Ident Type
Flight plan parsing failed, navigation log unavailable